sensor_id;sensor_type;location;lat;lon;timestamp;P1;durP1;ratioP1;P2;durP2;ratioP2
46561;SDS011;32289;42.688;23.330;2023-08-31T00:02:00;8.38;;;1.40;;
46561;SDS011;32289;42.688;23.330;2023-08-31T00:05:40;3.45;;;1.50;;
46561;SDS011;32289;42.688;23.330;2023-08-31T00:09:24;5.43;;;1.42;;
46561;SDS011;32289;42.688;23.330;2023-08-31T00:13:05;4.72;;;1.38;;
46561;SDS011;32289;42.688;23.330;2023-08-31T00:16:49;5.28;;;1.30;;
46561;SDS011;32289;42.688;23.330;2023-08-31T00:20:30;4.60;;;1.38;;
46561;SDS011;32289;42.688;23.330;2023-08-31T00:24:11;4.25;;;1.40;;
46561;SDS011;32289;42.688;23.330;2023-08-31T00:27:52;4.03;;;0.95;;
46561;SDS011;32289;42.688;23.330;2023-08-31T00:31:34;5.40;;;1.38;;
46561;SDS011;32289;42.688;23.330;2023-08-31T00:35:15;5.97;;;1.75;;
46561;SDS011;32289;42.688;23.330;2023-08-31T00:38:56;5.68;;;1.55;;
46561;SDS011;32289;42.688;23.330;2023-08-31T00:42:36;6.97;;;1.27;;
46561;SDS011;32289;42.688;23.330;2023-08-31T00:46:17;4.70;;;1.20;;
46561;SDS011;32289;42.688;23.330;2023-08-31T00:49:58;4.63;;;1.35;;
46561;SDS011;32289;42.688;23.330;2023-08-31T00:53:39;2.95;;;1.15;;
46561;SDS011;32289;42.688;23.330;2023-08-31T00:57:21;6.45;;;1.30;;
46561;SDS011;32289;42.688;23.330;2023-08-31T01:01:08;9.93;;;1.45;;
46561;SDS011;32289;42.688;23.330;2023-08-31T01:09:27;5.57;;;1.20;;
46561;SDS011;32289;42.688;23.330;2023-08-31T01:17:05;10.13;;;1.55;;
46561;SDS011;32289;42.688;23.330;2023-08-31T01:24:58;8.67;;;1.40;;
46561;SDS011;32289;42.688;23.330;2023-08-31T01:28:44;5.63;;;1.50;;
46561;SDS011;32289;42.688;23.330;2023-08-31T01:32:26;3.20;;;1.30;;
46561;SDS011;32289;42.688;23.330;2023-08-31T01:40:28;4.20;;;1.58;;
46561;SDS011;32289;42.688;23.330;2023-08-31T01:44:17;9.32;;;1.42;;
46561;SDS011;32289;42.688;23.330;2023-08-31T01:47:59;4.72;;;1.80;;
46561;SDS011;32289;42.688;23.330;2023-08-31T01:51:40;4.15;;;1.30;;
46561;SDS011;32289;42.688;23.330;2023-08-31T01:55:22;4.30;;;1.58;;
46561;SDS011;32289;42.688;23.330;2023-08-31T01:59:03;3.53;;;1.40;;
46561;SDS011;32289;42.688;23.330;2023-08-31T02:02:43;4.07;;;1.55;;
46561;SDS011;32289;42.688;23.330;2023-08-31T02:06:24;5.10;;;1.42;;
46561;SDS011;32289;42.688;23.330;2023-08-31T02:10:05;3.72;;;1.63;;
46561;SDS011;32289;42.688;23.330;2023-08-31T02:13:46;6.55;;;1.58;;
46561;SDS011;32289;42.688;23.330;2023-08-31T02:17:27;5.05;;;1.70;;
46561;SDS011;32289;42.688;23.330;2023-08-31T02:21:07;4.18;;;2.08;;
46561;SDS011;32289;42.688;23.330;2023-08-31T02:24:48;5.90;;;1.85;;
46561;SDS011;32289;42.688;23.330;2023-08-31T02:28:29;3.28;;;1.20;;
46561;SDS011;32289;42.688;23.330;2023-08-31T02:32:11;4.32;;;1.85;;
46561;SDS011;32289;42.688;23.330;2023-08-31T02:35:51;5.53;;;2.05;;
46561;SDS011;32289;42.688;23.330;2023-08-31T02:39:34;2.72;;;1.33;;
46561;SDS011;32289;42.688;23.330;2023-08-31T02:43:15;4.32;;;1.40;;
46561;SDS011;32289;42.688;23.330;2023-08-31T02:46:56;6.95;;;1.67;;
46561;SDS011;32289;42.688;23.330;2023-08-31T02:50:36;4.57;;;1.55;;
46561;SDS011;32289;42.688;23.330;2023-08-31T02:54:18;3.90;;;1.60;;
46561;SDS011;32289;42.688;23.330;2023-08-31T02:57:59;2.88;;;1.30;;
46561;SDS011;32289;42.688;23.330;2023-08-31T03:01:40;10.55;;;2.00;;
46561;SDS011;32289;42.688;23.330;2023-08-31T03:05:20;7.15;;;1.65;;
46561;SDS011;32289;42.688;23.330;2023-08-31T03:09:01;3.78;;;1.50;;
46561;SDS011;32289;42.688;23.330;2023-08-31T03:12:42;5.07;;;1.90;;
46561;SDS011;32289;42.688;23.330;2023-08-31T03:16:22;4.45;;;1.77;;
46561;SDS011;32289;42.688;23.330;2023-08-31T03:20:03;3.65;;;1.55;;
46561;SDS011;32289;42.688;23.330;2023-08-31T03:23:46;6.63;;;2.17;;
46561;SDS011;32289;42.688;23.330;2023-08-31T03:27:27;5.78;;;1.80;;
46561;SDS011;32289;42.688;23.330;2023-08-31T03:31:07;4.60;;;1.60;;
46561;SDS011;32289;42.688;23.330;2023-08-31T03:34:48;3.90;;;1.65;;
46561;SDS011;32289;42.688;23.330;2023-08-31T03:38:33;6.70;;;1.65;;
46561;SDS011;32289;42.688;23.330;2023-08-31T03:42:20;8.27;;;1.60;;
46561;SDS011;32289;42.688;23.330;2023-08-31T03:46:01;4.40;;;2.17;;
46561;SDS011;32289;42.688;23.330;2023-08-31T03:49:42;11.23;;;2.30;;
46561;SDS011;32289;42.688;23.330;2023-08-31T03:53:23;6.85;;;2.72;;
46561;SDS011;32289;42.688;23.330;2023-08-31T03:57:03;6.15;;;2.55;;
46561;SDS011;32289;42.688;23.330;2023-08-31T04:00:44;9.10;;;2.90;;
46561;SDS011;32289;42.688;23.330;2023-08-31T04:04:25;12.68;;;2.50;;
46561;SDS011;32289;42.688;23.330;2023-08-31T04:08:05;6.80;;;2.33;;
46561;SDS011;32289;42.688;23.330;2023-08-31T04:11:46;6.43;;;2.10;;
46561;SDS011;32289;42.688;23.330;2023-08-31T04:15:27;4.35;;;2.05;;
46561;SDS011;32289;42.688;23.330;2023-08-31T04:19:08;7.82;;;2.55;;
46561;SDS011;32289;42.688;23.330;2023-08-31T04:22:48;7.13;;;2.55;;
46561;SDS011;32289;42.688;23.330;2023-08-31T04:26:29;7.82;;;2.63;;
46561;SDS011;32289;42.688;23.330;2023-08-31T04:30:10;5.78;;;2.65;;
46561;SDS011;32289;42.688;23.330;2023-08-31T04:33:51;6.28;;;2.40;;
46561;SDS011;32289;42.688;23.330;2023-08-31T04:37:33;6.38;;;2.67;;
46561;SDS011;32289;42.688;23.330;2023-08-31T04:41:15;9.63;;;2.60;;
46561;SDS011;32289;42.688;23.330;2023-08-31T04:44:55;13.13;;;2.50;;
46561;SDS011;32289;42.688;23.330;2023-08-31T04:48:36;16.98;;;3.78;;
46561;SDS011;32289;42.688;23.330;2023-08-31T04:52:16;8.02;;;2.65;;
46561;SDS011;32289;42.688;23.330;2023-08-31T04:55:57;8.25;;;2.95;;
46561;SDS011;32289;42.688;23.330;2023-08-31T04:59:38;11.60;;;3.03;;
46561;SDS011;32289;42.688;23.330;2023-08-31T05:03:19;8.75;;;2.60;;
46561;SDS011;32289;42.688;23.330;2023-08-31T05:06:59;8.70;;;3.17;;
46561;SDS011;32289;42.688;23.330;2023-08-31T05:10:40;7.07;;;2.80;;
46561;SDS011;32289;42.688;23.330;2023-08-31T05:14:21;7.65;;;2.55;;
46561;SDS011;32289;42.688;23.330;2023-08-31T05:18:01;7.13;;;2.55;;
46561;SDS011;32289;42.688;23.330;2023-08-31T05:21:43;6.18;;;2.42;;
46561;SDS011;32289;42.688;23.330;2023-08-31T05:25:24;5.05;;;1.92;;
46561;SDS011;32289;42.688;23.330;2023-08-31T05:29:04;7.82;;;2.50;;
46561;SDS011;32289;42.688;23.330;2023-08-31T05:32:45;9.00;;;3.03;;
46561;SDS011;32289;42.688;23.330;2023-08-31T05:36:26;7.55;;;2.55;;
46561;SDS011;32289;42.688;23.330;2023-08-31T05:40:06;9.70;;;2.70;;
46561;SDS011;32289;42.688;23.330;2023-08-31T05:43:50;4.10;;;1.80;;
46561;SDS011;32289;42.688;23.330;2023-08-31T05:47:31;8.25;;;2.30;;
46561;SDS011;32289;42.688;23.330;2023-08-31T05:51:11;6.55;;;2.75;;
46561;SDS011;32289;42.688;23.330;2023-08-31T05:54:52;11.20;;;3.38;;
46561;SDS011;32289;42.688;23.330;2023-08-31T05:58:33;10.00;;;3.28;;
46561;SDS011;32289;42.688;23.330;2023-08-31T06:02:14;8.00;;;3.20;;
46561;SDS011;32289;42.688;23.330;2023-08-31T06:05:56;9.48;;;2.70;;
46561;SDS011;32289;42.688;23.330;2023-08-31T06:09:37;9.68;;;2.85;;
46561;SDS011;32289;42.688;23.330;2023-08-31T06:13:18;6.60;;;2.67;;
46561;SDS011;32289;42.688;23.330;2023-08-31T06:16:59;6.00;;;2.38;;
46561;SDS011;32289;42.688;23.330;2023-08-31T06:20:39;7.05;;;2.20;;
46561;SDS011;32289;42.688;23.330;2023-08-31T06:24:20;6.70;;;2.53;;
46561;SDS011;32289;42.688;23.330;2023-08-31T06:28:01;10.32;;;2.53;;
46561;SDS011;32289;42.688;23.330;2023-08-31T06:31:42;11.27;;;2.45;;
46561;SDS011;32289;42.688;23.330;2023-08-31T06:35:23;7.00;;;2.72;;
46561;SDS011;32289;42.688;23.330;2023-08-31T06:39:05;7.82;;;2.67;;
46561;SDS011;32289;42.688;23.330;2023-08-31T06:42:46;7.43;;;2.00;;
46561;SDS011;32289;42.688;23.330;2023-08-31T06:46:27;6.18;;;2.25;;
46561;SDS011;32289;42.688;23.330;2023-08-31T06:50:08;7.68;;;2.28;;
46561;SDS011;32289;42.688;23.330;2023-08-31T06:53:49;7.45;;;2.15;;
46561;SDS011;32289;42.688;23.330;2023-08-31T06:57:30;8.43;;;2.30;;
46561;SDS011;32289;42.688;23.330;2023-08-31T07:01:12;8.60;;;2.30;;
46561;SDS011;32289;42.688;23.330;2023-08-31T07:04:53;6.55;;;2.30;;
46561;SDS011;32289;42.688;23.330;2023-08-31T07:08:34;5.90;;;2.03;;
46561;SDS011;32289;42.688;23.330;2023-08-31T07:12:16;9.13;;;4.53;;
46561;SDS011;32289;42.688;23.330;2023-08-31T07:15:57;9.13;;;2.60;;
46561;SDS011;32289;42.688;23.330;2023-08-31T07:19:38;6.00;;;2.30;;
46561;SDS011;32289;42.688;23.330;2023-08-31T07:23:18;7.85;;;2.50;;
46561;SDS011;32289;42.688;23.330;2023-08-31T07:27:00;10.43;;;2.60;;
46561;SDS011;32289;42.688;23.330;2023-08-31T07:30:42;6.72;;;2.00;;
46561;SDS011;32289;42.688;23.330;2023-08-31T07:34:23;7.57;;;1.90;;
46561;SDS011;32289;42.688;23.330;2023-08-31T07:38:03;6.03;;;1.70;;
46561;SDS011;32289;42.688;23.330;2023-08-31T07:41:44;8.65;;;2.00;;
46561;SDS011;32289;42.688;23.330;2023-08-31T07:45:25;8.82;;;2.15;;
46561;SDS011;32289;42.688;23.330;2023-08-31T07:49:05;8.98;;;2.30;;
46561;SDS011;32289;42.688;23.330;2023-08-31T07:52:46;11.45;;;5.18;;
46561;SDS011;32289;42.688;23.330;2023-08-31T07:56:27;5.90;;;2.88;;
46561;SDS011;32289;42.688;23.330;2023-08-31T08:00:08;7.88;;;3.75;;
46561;SDS011;32289;42.688;23.330;2023-08-31T08:03:49;6.18;;;2.30;;
46561;SDS011;32289;42.688;23.330;2023-08-31T08:07:29;5.38;;;1.98;;
46561;SDS011;32289;42.688;23.330;2023-08-31T08:11:10;3.85;;;1.80;;
46561;SDS011;32289;42.688;23.330;2023-08-31T08:14:51;4.20;;;2.20;;
46561;SDS011;32289;42.688;23.330;2023-08-31T08:18:31;8.32;;;3.33;;
46561;SDS011;32289;42.688;23.330;2023-08-31T08:22:12;5.03;;;2.20;;
46561;SDS011;32289;42.688;23.330;2023-08-31T08:25:53;6.53;;;3.25;;
46561;SDS011;32289;42.688;23.330;2023-08-31T08:29:33;7.15;;;2.50;;
46561;SDS011;32289;42.688;23.330;2023-08-31T08:33:14;5.40;;;2.13;;
46561;SDS011;32289;42.688;23.330;2023-08-31T08:36:55;9.20;;;3.25;;
46561;SDS011;32289;42.688;23.330;2023-08-31T08:40:35;6.93;;;2.75;;
46561;SDS011;32289;42.688;23.330;2023-08-31T08:44:16;8.23;;;3.50;;
46561;SDS011;32289;42.688;23.330;2023-08-31T08:47:58;4.38;;;2.90;;
46561;SDS011;32289;42.688;23.330;2023-08-31T08:51:39;5.65;;;3.50;;
46561;SDS011;32289;42.688;23.330;2023-08-31T08:55:20;8.65;;;6.55;;
46561;SDS011;32289;42.688;23.330;2023-08-31T08:59:02;5.57;;;3.67;;
46561;SDS011;32289;42.688;23.330;2023-08-31T09:02:42;5.18;;;3.50;;
46561;SDS011;32289;42.688;23.330;2023-08-31T09:06:24;5.55;;;3.67;;
46561;SDS011;32289;42.688;23.330;2023-08-31T09:10:07;6.10;;;3.53;;
46561;SDS011;32289;42.688;23.330;2023-08-31T09:13:48;7.72;;;3.78;;
46561;SDS011;32289;42.688;23.330;2023-08-31T09:17:42;7.65;;;3.90;;
46561;SDS011;32289;42.688;23.330;2023-08-31T09:21:36;5.07;;;3.35;;
46561;SDS011;32289;42.688;23.330;2023-08-31T09:25:18;5.10;;;3.35;;
46561;SDS011;32289;42.688;23.330;2023-08-31T09:29:00;6.15;;;3.20;;
46561;SDS011;32289;42.688;23.330;2023-08-31T09:32:40;6.10;;;3.40;;
46561;SDS011;32289;42.688;23.330;2023-08-31T09:36:24;5.05;;;3.40;;
46561;SDS011;32289;42.688;23.330;2023-08-31T09:40:04;9.23;;;3.38;;
46561;SDS011;32289;42.688;23.330;2023-08-31T09:43:46;6.50;;;3.25;;
46561;SDS011;32289;42.688;23.330;2023-08-31T09:47:29;4.93;;;3.33;;
46561;SDS011;32289;42.688;23.330;2023-08-31T09:51:10;4.45;;;3.47;;
46561;SDS011;32289;42.688;23.330;2023-08-31T09:54:51;6.15;;;3.95;;
46561;SDS011;32289;42.688;23.330;2023-08-31T09:58:33;5.45;;;3.85;;
46561;SDS011;32289;42.688;23.330;2023-08-31T10:02:15;7.63;;;4.00;;
46561;SDS011;32289;42.688;23.330;2023-08-31T10:05:56;5.75;;;4.07;;
46561;SDS011;32289;42.688;23.330;2023-08-31T10:09:39;5.43;;;3.78;;
46561;SDS011;32289;42.688;23.330;2023-08-31T10:13:20;4.72;;;3.67;;
46561;SDS011;32289;42.688;23.330;2023-08-31T10:17:02;7.38;;;4.53;;
46561;SDS011;32289;42.688;23.330;2023-08-31T10:20:43;6.47;;;3.53;;
46561;SDS011;32289;42.688;23.330;2023-08-31T10:28:41;6.45;;;5.13;;
46561;SDS011;32289;42.688;23.330;2023-08-31T10:32:22;6.53;;;3.88;;
46561;SDS011;32289;42.688;23.330;2023-08-31T10:36:03;6.13;;;3.58;;
46561;SDS011;32289;42.688;23.330;2023-08-31T10:39:48;6.82;;;4.07;;
46561;SDS011;32289;42.688;23.330;2023-08-31T10:43:49;5.50;;;3.45;;
46561;SDS011;32289;42.688;23.330;2023-08-31T10:47:38;6.20;;;3.70;;
46561;SDS011;32289;42.688;23.330;2023-08-31T10:51:24;7.95;;;5.20;;
46561;SDS011;32289;42.688;23.330;2023-08-31T10:55:07;5.80;;;3.10;;
46561;SDS011;32289;42.688;23.330;2023-08-31T10:58:55;4.95;;;3.40;;
46561;SDS011;32289;42.688;23.330;2023-08-31T11:02:43;8.95;;;3.72;;
46561;SDS011;32289;42.688;23.330;2023-08-31T11:06:24;6.40;;;3.38;;
46561;SDS011;32289;42.688;23.330;2023-08-31T11:10:16;6.82;;;3.38;;
46561;SDS011;32289;42.688;23.330;2023-08-31T11:17:39;6.25;;;3.03;;
46561;SDS011;32289;42.688;23.330;2023-08-31T11:21:21;4.97;;;2.75;;
46561;SDS011;32289;42.688;23.330;2023-08-31T11:25:02;7.22;;;3.17;;
46561;SDS011;32289;42.688;23.330;2023-08-31T11:28:43;5.30;;;3.22;;
46561;SDS011;32289;42.688;23.330;2023-08-31T11:32:26;5.35;;;3.17;;
46561;SDS011;32289;42.688;23.330;2023-08-31T11:36:07;4.57;;;2.85;;
46561;SDS011;32289;42.688;23.330;2023-08-31T11:39:51;12.65;;;5.60;;
46561;SDS011;32289;42.688;23.330;2023-08-31T11:43:32;5.55;;;3.20;;
46561;SDS011;32289;42.688;23.330;2023-08-31T11:47:13;6.30;;;3.20;;
46561;SDS011;32289;42.688;23.330;2023-08-31T11:50:54;5.88;;;2.42;;
46561;SDS011;32289;42.688;23.330;2023-08-31T11:54:37;10.23;;;5.20;;
46561;SDS011;32289;42.688;23.330;2023-08-31T11:58:19;6.38;;;2.70;;
46561;SDS011;32289;42.688;23.330;2023-08-31T12:02:00;6.55;;;3.10;;
46561;SDS011;32289;42.688;23.330;2023-08-31T12:05:44;5.45;;;2.50;;
46561;SDS011;32289;42.688;23.330;2023-08-31T12:09:27;5.15;;;2.90;;
46561;SDS011;32289;42.688;23.330;2023-08-31T12:13:08;9.60;;;3.60;;
46561;SDS011;32289;42.688;23.330;2023-08-31T12:16:50;5.38;;;2.50;;
46561;SDS011;32289;42.688;23.330;2023-08-31T12:20:32;5.80;;;2.70;;
46561;SDS011;32289;42.688;23.330;2023-08-31T12:24:19;6.57;;;2.90;;
46561;SDS011;32289;42.688;23.330;2023-08-31T12:28:02;3.95;;;2.38;;
46561;SDS011;32289;42.688;23.330;2023-08-31T12:31:43;6.70;;;2.85;;
46561;SDS011;32289;42.688;23.330;2023-08-31T12:35:24;6.28;;;2.60;;
46561;SDS011;32289;42.688;23.330;2023-08-31T12:39:05;5.72;;;2.55;;
46561;SDS011;32289;42.688;23.330;2023-08-31T12:42:49;5.90;;;2.72;;
46561;SDS011;32289;42.688;23.330;2023-08-31T12:46:30;4.40;;;2.22;;
46561;SDS011;32289;42.688;23.330;2023-08-31T12:50:11;6.55;;;2.65;;
46561;SDS011;32289;42.688;23.330;2023-08-31T12:53:51;4.90;;;2.40;;
46561;SDS011;32289;42.688;23.330;2023-08-31T12:57:32;4.97;;;2.50;;
46561;SDS011;32289;42.688;23.330;2023-08-31T13:01:13;5.53;;;2.40;;
46561;SDS011;32289;42.688;23.330;2023-08-31T13:04:53;5.40;;;2.70;;
46561;SDS011;32289;42.688;23.330;2023-08-31T13:08:34;7.68;;;2.70;;
46561;SDS011;32289;42.688;23.330;2023-08-31T13:12:15;8.07;;;2.85;;
46561;SDS011;32289;42.688;23.330;2023-08-31T13:15:56;5.65;;;2.42;;
46561;SDS011;32289;42.688;23.330;2023-08-31T13:19:36;8.25;;;2.40;;
46561;SDS011;32289;42.688;23.330;2023-08-31T13:23:17;5.90;;;1.95;;
46561;SDS011;32289;42.688;23.330;2023-08-31T13:26:58;5.53;;;2.38;;
46561;SDS011;32289;42.688;23.330;2023-08-31T13:30:39;10.43;;;2.47;;
46561;SDS011;32289;42.688;23.330;2023-08-31T13:34:21;7.90;;;2.38;;
46561;SDS011;32289;42.688;23.330;2023-08-31T13:38:02;5.55;;;2.65;;
46561;SDS011;32289;42.688;23.330;2023-08-31T13:41:43;6.40;;;2.80;;
46561;SDS011;32289;42.688;23.330;2023-08-31T13:45:26;6.55;;;3.22;;
46561;SDS011;32289;42.688;23.330;2023-08-31T13:49:06;5.85;;;2.65;;
46561;SDS011;32289;42.688;23.330;2023-08-31T13:52:47;6.78;;;2.17;;
46561;SDS011;32289;42.688;23.330;2023-08-31T13:56:29;6.63;;;2.60;;
46561;SDS011;32289;42.688;23.330;2023-08-31T14:00:12;4.13;;;2.40;;
46561;SDS011;32289;42.688;23.330;2023-08-31T14:03:53;5.95;;;2.25;;
46561;SDS011;32289;42.688;23.330;2023-08-31T14:07:34;9.82;;;2.28;;
46561;SDS011;32289;42.688;23.330;2023-08-31T14:11:15;9.30;;;2.25;;
46561;SDS011;32289;42.688;23.330;2023-08-31T14:14:56;8.63;;;2.75;;
46561;SDS011;32289;42.688;23.330;2023-08-31T14:18:37;9.35;;;2.95;;
46561;SDS011;32289;42.688;23.330;2023-08-31T14:22:18;7.07;;;2.20;;
46561;SDS011;32289;42.688;23.330;2023-08-31T14:26:02;4.00;;;2.00;;
46561;SDS011;32289;42.688;23.330;2023-08-31T14:29:43;8.32;;;2.08;;
46561;SDS011;32289;42.688;23.330;2023-08-31T14:33:23;9.05;;;2.40;;
46561;SDS011;32289;42.688;23.330;2023-08-31T14:37:04;8.88;;;2.67;;
46561;SDS011;32289;42.688;23.330;2023-08-31T14:40:46;5.40;;;2.40;;
46561;SDS011;32289;42.688;23.330;2023-08-31T14:44:27;3.83;;;2.05;;
46561;SDS011;32289;42.688;23.330;2023-08-31T14:48:08;4.15;;;2.53;;
46561;SDS011;32289;42.688;23.330;2023-08-31T14:51:49;6.10;;;2.72;;
46561;SDS011;32289;42.688;23.330;2023-08-31T14:55:29;8.73;;;2.75;;
46561;SDS011;32289;42.688;23.330;2023-08-31T14:59:10;10.82;;;2.80;;
46561;SDS011;32289;42.688;23.330;2023-08-31T15:02:51;6.00;;;2.42;;
46561;SDS011;32289;42.688;23.330;2023-08-31T15:06:31;7.25;;;2.83;;
46561;SDS011;32289;42.688;23.330;2023-08-31T15:10:13;6.40;;;2.83;;
46561;SDS011;32289;42.688;23.330;2023-08-31T15:13:53;6.30;;;2.75;;
46561;SDS011;32289;42.688;23.330;2023-08-31T15:17:34;5.72;;;2.67;;
46561;SDS011;32289;42.688;23.330;2023-08-31T15:21:15;11.55;;;2.90;;
46561;SDS011;32289;42.688;23.330;2023-08-31T15:24:57;5.20;;;2.10;;
46561;SDS011;32289;42.688;23.330;2023-08-31T15:28:37;7.13;;;3.58;;
46561;SDS011;32289;42.688;23.330;2023-08-31T15:32:18;4.05;;;2.20;;
46561;SDS011;32289;42.688;23.330;2023-08-31T15:36:02;6.40;;;2.50;;
46561;SDS011;32289;42.688;23.330;2023-08-31T15:39:50;6.40;;;2.40;;
46561;SDS011;32289;42.688;23.330;2023-08-31T15:43:31;3.88;;;2.35;;
46561;SDS011;32289;42.688;23.330;2023-08-31T15:47:13;4.78;;;2.47;;
46561;SDS011;32289;42.688;23.330;2023-08-31T15:50:54;4.88;;;2.30;;
46561;SDS011;32289;42.688;23.330;2023-08-31T15:54:35;7.57;;;2.80;;
46561;SDS011;32289;42.688;23.330;2023-08-31T15:58:19;5.18;;;2.42;;
46561;SDS011;32289;42.688;23.330;2023-08-31T16:02:00;8.73;;;3.22;;
46561;SDS011;32289;42.688;23.330;2023-08-31T16:05:41;4.85;;;2.45;;
46561;SDS011;32289;42.688;23.330;2023-08-31T16:09:21;5.85;;;2.63;;
46561;SDS011;32289;42.688;23.330;2023-08-31T16:13:02;5.38;;;2.25;;
46561;SDS011;32289;42.688;23.330;2023-08-31T16:16:43;7.13;;;2.70;;
46561;SDS011;32289;42.688;23.330;2023-08-31T16:20:24;9.57;;;2.85;;
46561;SDS011;32289;42.688;23.330;2023-08-31T16:24:04;11.32;;;2.72;;
46561;SDS011;32289;42.688;23.330;2023-08-31T16:27:45;6.38;;;2.88;;
46561;SDS011;32289;42.688;23.330;2023-08-31T16:31:26;8.25;;;3.13;;
46561;SDS011;32289;42.688;23.330;2023-08-31T16:35:07;6.70;;;2.25;;
46561;SDS011;32289;42.688;23.330;2023-08-31T16:38:48;5.63;;;2.63;;
46561;SDS011;32289;42.688;23.330;2023-08-31T16:42:28;7.35;;;2.88;;
46561;SDS011;32289;42.688;23.330;2023-08-31T16:46:09;6.10;;;2.53;;
46561;SDS011;32289;42.688;23.330;2023-08-31T16:49:50;5.55;;;2.13;;
46561;SDS011;32289;42.688;23.330;2023-08-31T16:53:30;3.63;;;1.55;;
46561;SDS011;32289;42.688;23.330;2023-08-31T16:57:33;3.78;;;2.00;;
46561;SDS011;32289;42.688;23.330;2023-08-31T17:01:14;8.15;;;3.50;;
46561;SDS011;32289;42.688;23.330;2023-08-31T17:04:55;5.78;;;2.53;;
46561;SDS011;32289;42.688;23.330;2023-08-31T17:08:40;11.80;;;5.28;;
46561;SDS011;32289;42.688;23.330;2023-08-31T17:12:20;6.55;;;2.40;;
46561;SDS011;32289;42.688;23.330;2023-08-31T17:16:08;4.72;;;2.30;;
46561;SDS011;32289;42.688;23.330;2023-08-31T17:19:57;6.78;;;3.63;;
46561;SDS011;32289;42.688;23.330;2023-08-31T17:23:38;5.60;;;2.58;;
46561;SDS011;32289;42.688;23.330;2023-08-31T17:27:19;6.07;;;2.53;;
46561;SDS011;32289;42.688;23.330;2023-08-31T17:30:59;5.07;;;2.22;;
46561;SDS011;32289;42.688;23.330;2023-08-31T17:39:12;5.70;;;2.08;;
46561;SDS011;32289;42.688;23.330;2023-08-31T17:42:52;5.40;;;2.80;;
46561;SDS011;32289;42.688;23.330;2023-08-31T17:46:43;4.50;;;2.15;;
46561;SDS011;32289;42.688;23.330;2023-08-31T17:50:24;6.18;;;2.80;;
46561;SDS011;32289;42.688;23.330;2023-08-31T17:58:22;4.90;;;2.00;;
46561;SDS011;32289;42.688;23.330;2023-08-31T18:02:07;10.25;;;2.38;;
46561;SDS011;32289;42.688;23.330;2023-08-31T18:05:51;6.55;;;2.58;;
46561;SDS011;32289;42.688;23.330;2023-08-31T18:09:33;6.95;;;2.92;;
46561;SDS011;32289;42.688;23.330;2023-08-31T18:13:16;8.07;;;2.85;;
46561;SDS011;32289;42.688;23.330;2023-08-31T18:16:57;4.88;;;2.70;;
46561;SDS011;32289;42.688;23.330;2023-08-31T18:20:38;8.52;;;2.47;;
46561;SDS011;32289;42.688;23.330;2023-08-31T18:28:58;7.28;;;2.78;;
46561;SDS011;32289;42.688;23.330;2023-08-31T18:32:40;6.72;;;3.47;;
46561;SDS011;32289;42.688;23.330;2023-08-31T18:36:21;6.15;;;2.88;;
46561;SDS011;32289;42.688;23.330;2023-08-31T18:44:08;12.70;;;3.20;;
46561;SDS011;32289;42.688;23.330;2023-08-31T18:52:25;8.35;;;3.53;;
46561;SDS011;32289;42.688;23.330;2023-08-31T18:56:06;8.57;;;2.70;;
46561;SDS011;32289;42.688;23.330;2023-08-31T18:59:47;5.82;;;2.42;;
46561;SDS011;32289;42.688;23.330;2023-08-31T19:03:28;5.13;;;2.15;;
46561;SDS011;32289;42.688;23.330;2023-08-31T19:11:46;6.32;;;3.10;;
46561;SDS011;32289;42.688;23.330;2023-08-31T19:15:26;6.22;;;2.65;;
46561;SDS011;32289;42.688;23.330;2023-08-31T19:23:44;4.82;;;2.30;;
46561;SDS011;32289;42.688;23.330;2023-08-31T19:36:38;4.40;;;2.20;;
46561;SDS011;32289;42.688;23.330;2023-08-31T19:40:20;10.95;;;3.30;;
46561;SDS011;32289;42.688;23.330;2023-08-31T19:48:19;8.70;;;4.65;;
46561;SDS011;32289;42.688;23.330;2023-08-31T19:52:01;10.38;;;3.05;;
46561;SDS011;32289;42.688;23.330;2023-08-31T20:00:19;6.03;;;2.85;;
46561;SDS011;32289;42.688;23.330;2023-08-31T20:04:02;8.13;;;2.65;;
46561;SDS011;32289;42.688;23.330;2023-08-31T20:07:43;6.25;;;2.85;;
46561;SDS011;32289;42.688;23.330;2023-08-31T20:20:30;11.00;;;3.42;;
46561;SDS011;32289;42.688;23.330;2023-08-31T20:33:43;11.43;;;3.47;;
46561;SDS011;32289;42.688;23.330;2023-08-31T20:37:24;10.70;;;3.25;;
46561;SDS011;32289;42.688;23.330;2023-08-31T20:41:05;13.43;;;4.05;;
46561;SDS011;32289;42.688;23.330;2023-08-31T20:44:48;11.48;;;4.45;;
46561;SDS011;32289;42.688;23.330;2023-08-31T20:48:30;11.70;;;3.95;;
46561;SDS011;32289;42.688;23.330;2023-08-31T20:52:23;10.18;;;4.22;;
46561;SDS011;32289;42.688;23.330;2023-08-31T20:56:08;13.30;;;4.60;;
46561;SDS011;32289;42.688;23.330;2023-08-31T20:59:52;11.35;;;4.47;;
46561;SDS011;32289;42.688;23.330;2023-08-31T21:03:36;7.45;;;3.35;;
46561;SDS011;32289;42.688;23.330;2023-08-31T21:11:46;7.18;;;2.20;;
46561;SDS011;32289;42.688;23.330;2023-08-31T21:15:28;12.43;;;2.53;;
46561;SDS011;32289;42.688;23.330;2023-08-31T21:23:45;7.63;;;3.30;;
46561;SDS011;32289;42.688;23.330;2023-08-31T21:27:26;7.65;;;3.00;;
46561;SDS011;32289;42.688;23.330;2023-08-31T21:31:07;8.18;;;3.05;;
46561;SDS011;32289;42.688;23.330;2023-08-31T21:34:47;6.45;;;2.72;;
46561;SDS011;32289;42.688;23.330;2023-08-31T21:38:28;7.18;;;2.70;;
46561;SDS011;32289;42.688;23.330;2023-08-31T21:42:12;5.53;;;2.67;;
46561;SDS011;32289;42.688;23.330;2023-08-31T21:45:56;12.10;;;2.80;;
46561;SDS011;32289;42.688;23.330;2023-08-31T21:49:57;5.95;;;2.80;;
46561;SDS011;32289;42.688;23.330;2023-08-31T21:53:37;10.70;;;2.65;;
46561;SDS011;32289;42.688;23.330;2023-08-31T21:57:18;6.63;;;2.53;;
46561;SDS011;32289;42.688;23.330;2023-08-31T22:01:00;7.65;;;3.22;;
46561;SDS011;32289;42.688;23.330;2023-08-31T22:05:01;6.75;;;3.20;;
46561;SDS011;32289;42.688;23.330;2023-08-31T22:08:43;6.68;;;2.33;;
46561;SDS011;32289;42.688;23.330;2023-08-31T22:12:24;8.50;;;2.58;;
46561;SDS011;32289;42.688;23.330;2023-08-31T22:16:05;10.50;;;2.90;;
46561;SDS011;32289;42.688;23.330;2023-08-31T22:19:56;5.93;;;2.40;;
46561;SDS011;32289;42.688;23.330;2023-08-31T22:23:36;5.50;;;2.63;;
46561;SDS011;32289;42.688;23.330;2023-08-31T22:31:50;7.60;;;3.55;;
46561;SDS011;32289;42.688;23.330;2023-08-31T22:35:30;8.27;;;2.60;;
46561;SDS011;32289;42.688;23.330;2023-08-31T22:39:11;8.80;;;2.70;;
46561;SDS011;32289;42.688;23.330;2023-08-31T22:42:52;6.60;;;2.78;;
46561;SDS011;32289;42.688;23.330;2023-08-31T22:46:32;5.97;;;2.53;;
46561;SDS011;32289;42.688;23.330;2023-08-31T22:50:14;4.07;;;2.10;;
46561;SDS011;32289;42.688;23.330;2023-08-31T22:58:32;9.20;;;2.80;;
46561;SDS011;32289;42.688;23.330;2023-08-31T23:06:15;10.32;;;2.55;;
46561;SDS011;32289;42.688;23.330;2023-08-31T23:14:32;6.32;;;2.20;;
46561;SDS011;32289;42.688;23.330;2023-08-31T23:18:13;5.07;;;2.22;;
46561;SDS011;32289;42.688;23.330;2023-08-31T23:21:54;5.28;;;2.15;;
46561;SDS011;32289;42.688;23.330;2023-08-31T23:30:11;5.88;;;2.05;;
46561;SDS011;32289;42.688;23.330;2023-08-31T23:33:52;4.32;;;2.67;;
46561;SDS011;32289;42.688;23.330;2023-08-31T23:42:11;4.70;;;2.28;;
46561;SDS011;32289;42.688;23.330;2023-08-31T23:45:51;5.53;;;2.10;;
46561;SDS011;32289;42.688;23.330;2023-08-31T23:49:32;10.93;;;2.70;;
46561;SDS011;32289;42.688;23.330;2023-08-31T23:53:13;5.72;;;2.20;;
46561;SDS011;32289;42.688;23.330;2023-08-31T23:56:53;8.68;;;2.05;;
